sensor_id;sensor_type;location;lat;lon;timestamp;P1;durP1;ratioP1;P2;durP2;ratioP2
47866;SDS011;33628;50.806;11.586;2023-04-26T00:01:21;3.90;;;1.90;;
47866;SDS011;33628;50.806;11.586;2023-04-26T00:03:48;6.30;;;1.90;;
47866;SDS011;33628;50.806;11.586;2023-04-26T00:06:15;5.50;;;1.90;;
47866;SDS011;33628;50.806;11.586;2023-04-26T00:08:41;2.97;;;1.98;;
47866;SDS011;33628;50.806;11.586;2023-04-26T00:11:08;7.45;;;2.20;;
47866;SDS011;33628;50.806;11.586;2023-04-26T00:13:35;3.85;;;1.90;;
47866;SDS011;33628;50.806;11.586;2023-04-26T00:16:05;6.00;;;2.17;;
47866;SDS011;33628;50.806;11.586;2023-04-26T00:18:32;4.13;;;2.00;;
47866;SDS011;33628;50.806;11.586;2023-04-26T00:20:59;9.88;;;2.30;;
47866;SDS011;33628;50.806;11.586;2023-04-26T00:23:25;5.28;;;2.17;;
47866;SDS011;33628;50.806;11.586;2023-04-26T00:25:52;5.88;;;2.53;;
47866;SDS011;33628;50.806;11.586;2023-04-26T00:28:19;5.22;;;2.08;;
47866;SDS011;33628;50.806;11.586;2023-04-26T00:30:46;8.65;;;2.80;;
47866;SDS011;33628;50.806;11.586;2023-04-26T00:33:15;9.45;;;2.50;;
47866;SDS011;33628;50.806;11.586;2023-04-26T00:35:42;6.05;;;2.55;;
47866;SDS011;33628;50.806;11.586;2023-04-26T00:38:09;6.55;;;2.35;;
47866;SDS011;33628;50.806;11.586;2023-04-26T00:40:35;5.95;;;2.33;;
47866;SDS011;33628;50.806;11.586;2023-04-26T00:43:02;7.22;;;2.25;;
47866;SDS011;33628;50.806;11.586;2023-04-26T00:45:29;5.57;;;2.17;;
47866;SDS011;33628;50.806;11.586;2023-04-26T00:47:56;7.00;;;2.65;;
47866;SDS011;33628;50.806;11.586;2023-04-26T00:50:25;4.55;;;2.22;;
47866;SDS011;33628;50.806;11.586;2023-04-26T00:52:52;7.43;;;2.47;;
47866;SDS011;33628;50.806;11.586;2023-04-26T00:55:19;5.68;;;2.30;;
47866;SDS011;33628;50.806;11.586;2023-04-26T00:57:47;5.43;;;1.83;;
47866;SDS011;33628;50.806;11.586;2023-04-26T01:00:14;7.85;;;2.20;;
47866;SDS011;33628;50.806;11.586;2023-04-26T01:02:42;5.80;;;2.10;;
47866;SDS011;33628;50.806;11.586;2023-04-26T01:05:08;6.05;;;2.13;;
47866;SDS011;33628;50.806;11.586;2023-04-26T01:07:37;4.82;;;2.20;;
47866;SDS011;33628;50.806;11.586;2023-04-26T01:10:04;11.38;;;2.50;;
47866;SDS011;33628;50.806;11.586;2023-04-26T01:12:31;5.80;;;2.00;;
47866;SDS011;33628;50.806;11.586;2023-04-26T01:14:58;5.38;;;2.25;;
47866;SDS011;33628;50.806;11.586;2023-04-26T01:17:25;4.85;;;1.98;;
47866;SDS011;33628;50.806;11.586;2023-04-26T01:19:52;4.88;;;2.17;;
47866;SDS011;33628;50.806;11.586;2023-04-26T01:22:19;8.48;;;2.53;;
47866;SDS011;33628;50.806;11.586;2023-04-26T01:24:49;6.55;;;3.00;;
47866;SDS011;33628;50.806;11.586;2023-04-26T01:27:16;4.22;;;1.90;;
47866;SDS011;33628;50.806;11.586;2023-04-26T01:29:43;7.38;;;2.30;;
47866;SDS011;33628;50.806;11.586;2023-04-26T01:32:11;4.88;;;2.63;;
47866;SDS011;33628;50.806;11.586;2023-04-26T01:34:37;5.00;;;2.47;;
47866;SDS011;33628;50.806;11.586;2023-04-26T01:37:04;2.13;;;1.80;;
47866;SDS011;33628;50.806;11.586;2023-04-26T01:39:33;5.25;;;2.30;;
47866;SDS011;33628;50.806;11.586;2023-04-26T01:42:02;6.30;;;2.30;;
47866;SDS011;33628;50.806;11.586;2023-04-26T01:44:31;7.10;;;2.30;;
47866;SDS011;33628;50.806;11.586;2023-04-26T01:47:00;7.60;;;2.40;;
47866;SDS011;33628;50.806;11.586;2023-04-26T01:49:26;12.75;;;2.47;;
47866;SDS011;33628;50.806;11.586;2023-04-26T01:51:53;5.22;;;2.50;;
47866;SDS011;33628;50.806;11.586;2023-04-26T01:54:20;8.25;;;2.45;;
47866;SDS011;33628;50.806;11.586;2023-04-26T01:56:47;9.35;;;3.13;;
47866;SDS011;33628;50.806;11.586;2023-04-26T01:59:15;3.95;;;2.10;;
47866;SDS011;33628;50.806;11.586;2023-04-26T02:01:41;10.80;;;2.50;;
47866;SDS011;33628;50.806;11.586;2023-04-26T02:04:09;4.25;;;2.13;;
47866;SDS011;33628;50.806;11.586;2023-04-26T02:06:36;9.52;;;2.70;;
47866;SDS011;33628;50.806;11.586;2023-04-26T02:09:03;4.55;;;2.53;;
47866;SDS011;33628;50.806;11.586;2023-04-26T02:11:30;6.13;;;2.78;;
47866;SDS011;33628;50.806;11.586;2023-04-26T02:13:57;9.02;;;2.50;;
47866;SDS011;33628;50.806;11.586;2023-04-26T02:16:25;8.38;;;2.95;;
47866;SDS011;33628;50.806;11.586;2023-04-26T02:18:51;7.03;;;2.90;;
47866;SDS011;33628;50.806;11.586;2023-04-26T02:21:21;8.40;;;3.17;;
47866;SDS011;33628;50.806;11.586;2023-04-26T02:23:48;8.82;;;2.60;;
47866;SDS011;33628;50.806;11.586;2023-04-26T02:26:15;8.20;;;2.67;;
47866;SDS011;33628;50.806;11.586;2023-04-26T02:28:42;10.52;;;2.22;;
47866;SDS011;33628;50.806;11.586;2023-04-26T02:31:09;9.23;;;2.60;;
47866;SDS011;33628;50.806;11.586;2023-04-26T02:33:37;5.93;;;2.47;;
47866;SDS011;33628;50.806;11.586;2023-04-26T02:36:04;6.85;;;2.40;;
47866;SDS011;33628;50.806;11.586;2023-04-26T02:38:32;6.97;;;2.28;;
47866;SDS011;33628;50.806;11.586;2023-04-26T02:41:00;7.03;;;2.38;;
47866;SDS011;33628;50.806;11.586;2023-04-26T02:43:27;4.10;;;2.53;;
47866;SDS011;33628;50.806;11.586;2023-04-26T02:45:54;7.68;;;2.95;;
47866;SDS011;33628;50.806;11.586;2023-04-26T02:48:24;6.93;;;2.55;;
47866;SDS011;33628;50.806;11.586;2023-04-26T02:50:52;6.90;;;2.95;;
47866;SDS011;33628;50.806;11.586;2023-04-26T02:53:19;13.38;;;3.58;;
47866;SDS011;33628;50.806;11.586;2023-04-26T02:55:45;8.65;;;2.20;;
47866;SDS011;33628;50.806;11.586;2023-04-26T02:58:12;7.07;;;2.42;;
47866;SDS011;33628;50.806;11.586;2023-04-26T03:00:43;6.40;;;3.13;;
47866;SDS011;33628;50.806;11.586;2023-04-26T03:03:11;8.77;;;2.20;;
47866;SDS011;33628;50.806;11.586;2023-04-26T03:05:37;6.53;;;2.70;;
47866;SDS011;33628;50.806;11.586;2023-04-26T03:08:06;4.53;;;2.25;;
47866;SDS011;33628;50.806;11.586;2023-04-26T03:10:33;8.35;;;2.83;;
47866;SDS011;33628;50.806;11.586;2023-04-26T03:13:00;8.43;;;2.78;;
47866;SDS011;33628;50.806;11.586;2023-04-26T03:15:29;6.70;;;2.28;;
47866;SDS011;33628;50.806;11.586;2023-04-26T03:17:55;9.15;;;2.72;;
47866;SDS011;33628;50.806;11.586;2023-04-26T03:20:23;7.13;;;2.65;;
47866;SDS011;33628;50.806;11.586;2023-04-26T03:22:50;10.30;;;2.53;;
47866;SDS011;33628;50.806;11.586;2023-04-26T03:25:18;13.13;;;3.58;;
47866;SDS011;33628;50.806;11.586;2023-04-26T03:27:45;6.15;;;3.28;;
47866;SDS011;33628;50.806;11.586;2023-04-26T03:30:12;4.78;;;3.58;;
47866;SDS011;33628;50.806;11.586;2023-04-26T03:32:42;6.20;;;2.83;;
47866;SDS011;33628;50.806;11.586;2023-04-26T03:35:08;9.90;;;3.20;;
47866;SDS011;33628;50.806;11.586;2023-04-26T03:37:35;7.60;;;3.00;;
47866;SDS011;33628;50.806;11.586;2023-04-26T03:40:07;6.28;;;2.90;;
47866;SDS011;33628;50.806;11.586;2023-04-26T03:42:36;7.72;;;3.30;;
47866;SDS011;33628;50.806;11.586;2023-04-26T03:45:03;8.10;;;3.30;;
47866;SDS011;33628;50.806;11.586;2023-04-26T03:47:30;7.40;;;3.38;;
47866;SDS011;33628;50.806;11.586;2023-04-26T03:49:57;7.95;;;2.70;;
47866;SDS011;33628;50.806;11.586;2023-04-26T03:52:24;8.20;;;3.60;;
47866;SDS011;33628;50.806;11.586;2023-04-26T03:54:51;6.10;;;2.75;;
47866;SDS011;33628;50.806;11.586;2023-04-26T03:57:18;6.75;;;2.70;;
47866;SDS011;33628;50.806;11.586;2023-04-26T03:59:46;7.78;;;3.45;;
47866;SDS011;33628;50.806;11.586;2023-04-26T04:02:12;7.03;;;3.13;;
47866;SDS011;33628;50.806;11.586;2023-04-26T04:04:40;7.13;;;3.08;;
47866;SDS011;33628;50.806;11.586;2023-04-26T04:07:07;8.45;;;2.97;;
47866;SDS011;33628;50.806;11.586;2023-04-26T04:09:34;6.38;;;2.75;;
47866;SDS011;33628;50.806;11.586;2023-04-26T04:12:02;6.70;;;3.17;;
47866;SDS011;33628;50.806;11.586;2023-04-26T04:14:30;7.05;;;2.53;;
47866;SDS011;33628;50.806;11.586;2023-04-26T04:16:58;5.72;;;2.75;;
47866;SDS011;33628;50.806;11.586;2023-04-26T04:19:27;9.80;;;3.92;;
47866;SDS011;33628;50.806;11.586;2023-04-26T04:21:54;7.13;;;3.28;;
47866;SDS011;33628;50.806;11.586;2023-04-26T04:24:21;6.50;;;2.70;;
47866;SDS011;33628;50.806;11.586;2023-04-26T04:26:48;7.68;;;2.65;;
47866;SDS011;33628;50.806;11.586;2023-04-26T04:29:15;5.93;;;2.95;;
47866;SDS011;33628;50.806;11.586;2023-04-26T04:31:42;9.10;;;3.05;;
47866;SDS011;33628;50.806;11.586;2023-04-26T04:34:10;6.63;;;2.67;;
47866;SDS011;33628;50.806;11.586;2023-04-26T04:36:40;11.02;;;3.38;;
47866;SDS011;33628;50.806;11.586;2023-04-26T04:39:07;8.52;;;3.38;;
47866;SDS011;33628;50.806;11.586;2023-04-26T04:41:41;8.65;;;3.08;;
47866;SDS011;33628;50.806;11.586;2023-04-26T04:44:14;8.57;;;3.30;;
47866;SDS011;33628;50.806;11.586;2023-04-26T04:46:42;10.65;;;3.65;;
47866;SDS011;33628;50.806;11.586;2023-04-26T04:49:11;11.95;;;3.42;;
47866;SDS011;33628;50.806;11.586;2023-04-26T04:51:38;6.80;;;3.53;;
47866;SDS011;33628;50.806;11.586;2023-04-26T04:54:10;8.88;;;4.25;;
47866;SDS011;33628;50.806;11.586;2023-04-26T04:56:37;8.00;;;3.15;;
47866;SDS011;33628;50.806;11.586;2023-04-26T04:59:05;8.85;;;3.00;;
47866;SDS011;33628;50.806;11.586;2023-04-26T05:01:32;7.57;;;3.20;;
47866;SDS011;33628;50.806;11.586;2023-04-26T05:04:02;8.55;;;2.72;;
47866;SDS011;33628;50.806;11.586;2023-04-26T05:06:30;11.65;;;2.38;;
47866;SDS011;33628;50.806;11.586;2023-04-26T05:08:59;7.95;;;2.80;;
47866;SDS011;33628;50.806;11.586;2023-04-26T05:11:26;6.00;;;2.70;;
47866;SDS011;33628;50.806;11.586;2023-04-26T05:13:53;7.35;;;2.67;;
47866;SDS011;33628;50.806;11.586;2023-04-26T05:16:20;10.23;;;3.00;;
47866;SDS011;33628;50.806;11.586;2023-04-26T05:18:47;6.25;;;2.58;;
47866;SDS011;33628;50.806;11.586;2023-04-26T05:21:14;5.70;;;3.03;;
47866;SDS011;33628;50.806;11.586;2023-04-26T05:23:42;12.70;;;3.25;;
47866;SDS011;33628;50.806;11.586;2023-04-26T05:26:11;9.25;;;2.55;;
47866;SDS011;33628;50.806;11.586;2023-04-26T05:29:02;9.15;;;3.22;;
47866;SDS011;33628;50.806;11.586;2023-04-26T05:31:47;9.13;;;2.88;;
47866;SDS011;33628;50.806;11.586;2023-04-26T05:34:40;7.63;;;2.78;;
47866;SDS011;33628;50.806;11.586;2023-04-26T05:37:10;8.15;;;3.03;;
47866;SDS011;33628;50.806;11.586;2023-04-26T05:39:38;14.05;;;3.60;;
47866;SDS011;33628;50.806;11.586;2023-04-26T05:42:05;8.85;;;3.90;;
47866;SDS011;33628;50.806;11.586;2023-04-26T05:44:32;8.73;;;3.30;;
47866;SDS011;33628;50.806;11.586;2023-04-26T05:46:59;10.60;;;3.08;;
47866;SDS011;33628;50.806;11.586;2023-04-26T05:49:26;7.85;;;2.80;;
47866;SDS011;33628;50.806;11.586;2023-04-26T05:51:53;7.18;;;2.75;;
47866;SDS011;33628;50.806;11.586;2023-04-26T05:54:22;12.52;;;3.40;;
47866;SDS011;33628;50.806;11.586;2023-04-26T05:56:50;12.48;;;4.07;;
47866;SDS011;33628;50.806;11.586;2023-04-26T05:59:17;9.50;;;3.38;;
47866;SDS011;33628;50.806;11.586;2023-04-26T06:01:44;6.05;;;3.13;;
47866;SDS011;33628;50.806;11.586;2023-04-26T06:04:11;5.50;;;3.03;;
47866;SDS011;33628;50.806;11.586;2023-04-26T06:06:54;8.50;;;3.17;;
47866;SDS011;33628;50.806;11.586;2023-04-26T06:09:21;6.25;;;3.50;;
47866;SDS011;33628;50.806;11.586;2023-04-26T06:11:47;11.45;;;3.20;;
47866;SDS011;33628;50.806;11.586;2023-04-26T06:14:15;12.68;;;3.63;;
47866;SDS011;33628;50.806;11.586;2023-04-26T06:16:44;9.07;;;3.40;;
47866;SDS011;33628;50.806;11.586;2023-04-26T06:19:11;14.85;;;4.00;;
47866;SDS011;33628;50.806;11.586;2023-04-26T06:22:03;9.65;;;3.45;;
47866;SDS011;33628;50.806;11.586;2023-04-26T06:24:32;8.95;;;3.22;;
47866;SDS011;33628;50.806;11.586;2023-04-26T06:27:01;12.95;;;2.78;;
47866;SDS011;33628;50.806;11.586;2023-04-26T06:29:31;6.10;;;3.10;;
47866;SDS011;33628;50.806;11.586;2023-04-26T06:31:57;8.77;;;3.10;;
47866;SDS011;33628;50.806;11.586;2023-04-26T06:34:25;9.27;;;3.20;;
47866;SDS011;33628;50.806;11.586;2023-04-26T06:36:52;9.85;;;2.92;;
47866;SDS011;33628;50.806;11.586;2023-04-26T06:39:21;7.35;;;2.42;;
47866;SDS011;33628;50.806;11.586;2023-04-26T06:41:49;11.48;;;3.05;;
47866;SDS011;33628;50.806;11.586;2023-04-26T06:44:26;9.10;;;2.90;;
47866;SDS011;33628;50.806;11.586;2023-04-26T06:47:00;6.85;;;2.50;;
47866;SDS011;33628;50.806;11.586;2023-04-26T06:49:27;9.93;;;2.30;;
47866;SDS011;33628;50.806;11.586;2023-04-26T06:51:54;5.88;;;2.75;;
47866;SDS011;33628;50.806;11.586;2023-04-26T06:54:20;9.38;;;2.72;;
47866;SDS011;33628;50.806;11.586;2023-04-26T06:56:47;8.13;;;2.22;;
47866;SDS011;33628;50.806;11.586;2023-04-26T06:59:13;7.57;;;2.45;;
47866;SDS011;33628;50.806;11.586;2023-04-26T07:01:43;7.03;;;2.58;;
47866;SDS011;33628;50.806;11.586;2023-04-26T07:04:09;9.60;;;2.47;;
47866;SDS011;33628;50.806;11.586;2023-04-26T07:06:36;6.10;;;2.28;;
47866;SDS011;33628;50.806;11.586;2023-04-26T07:09:04;7.60;;;2.40;;
47866;SDS011;33628;50.806;11.586;2023-04-26T07:11:30;5.40;;;2.13;;
47866;SDS011;33628;50.806;11.586;2023-04-26T07:13:57;8.27;;;2.80;;
47866;SDS011;33628;50.806;11.586;2023-04-26T07:16:25;8.85;;;2.85;;
47866;SDS011;33628;50.806;11.586;2023-04-26T07:18:54;10.57;;;2.42;;
47866;SDS011;33628;50.806;11.586;2023-04-26T07:21:23;8.80;;;1.60;;
47866;SDS011;33628;50.806;11.586;2023-04-26T07:23:52;5.40;;;1.80;;
47866;SDS011;33628;50.806;11.586;2023-04-26T07:26:19;5.13;;;1.95;;
47866;SDS011;33628;50.806;11.586;2023-04-26T07:28:47;12.30;;;3.42;;
47866;SDS011;33628;50.806;11.586;2023-04-26T07:31:15;10.82;;;3.10;;
47866;SDS011;33628;50.806;11.586;2023-04-26T07:33:42;16.50;;;2.35;;
47866;SDS011;33628;50.806;11.586;2023-04-26T07:36:10;8.18;;;1.88;;
47866;SDS011;33628;50.806;11.586;2023-04-26T07:38:37;10.18;;;1.80;;
47866;SDS011;33628;50.806;11.586;2023-04-26T07:41:03;7.25;;;1.75;;
47866;SDS011;33628;50.806;11.586;2023-04-26T07:43:30;6.88;;;1.92;;
47866;SDS011;33628;50.806;11.586;2023-04-26T07:45:58;6.20;;;1.70;;
47866;SDS011;33628;50.806;11.586;2023-04-26T07:48:25;6.43;;;1.67;;
47866;SDS011;33628;50.806;11.586;2023-04-26T07:50:52;9.27;;;2.20;;
47866;SDS011;33628;50.806;11.586;2023-04-26T07:53:21;6.90;;;1.60;;
47866;SDS011;33628;50.806;11.586;2023-04-26T07:55:49;6.90;;;1.55;;
47866;SDS011;33628;50.806;11.586;2023-04-26T07:58:16;4.78;;;1.55;;
47866;SDS011;33628;50.806;11.586;2023-04-26T08:00:44;6.82;;;1.70;;
47866;SDS011;33628;50.806;11.586;2023-04-26T08:03:13;7.78;;;1.40;;
47866;SDS011;33628;50.806;11.586;2023-04-26T08:05:43;6.68;;;1.58;;
47866;SDS011;33628;50.806;11.586;2023-04-26T08:08:10;8.35;;;1.65;;
47866;SDS011;33628;50.806;11.586;2023-04-26T08:10:40;10.23;;;1.50;;
47866;SDS011;33628;50.806;11.586;2023-04-26T08:13:07;5.13;;;1.42;;
47866;SDS011;33628;50.806;11.586;2023-04-26T08:15:34;6.32;;;1.55;;
47866;SDS011;33628;50.806;11.586;2023-04-26T08:18:01;8.98;;;1.98;;
47866;SDS011;33628;50.806;11.586;2023-04-26T08:20:28;6.57;;;1.23;;
47866;SDS011;33628;50.806;11.586;2023-04-26T08:22:55;5.90;;;1.55;;
47866;SDS011;33628;50.806;11.586;2023-04-26T08:25:22;7.78;;;1.50;;
47866;SDS011;33628;50.806;11.586;2023-04-26T08:27:51;9.38;;;2.22;;
47866;SDS011;33628;50.806;11.586;2023-04-26T08:30:18;4.15;;;1.35;;
47866;SDS011;33628;50.806;11.586;2023-04-26T08:32:45;14.10;;;4.63;;
47866;SDS011;33628;50.806;11.586;2023-04-26T08:35:12;4.55;;;1.25;;
47866;SDS011;33628;50.806;11.586;2023-04-26T08:37:39;8.20;;;1.52;;
47866;SDS011;33628;50.806;11.586;2023-04-26T08:40:06;9.18;;;1.70;;
47866;SDS011;33628;50.806;11.586;2023-04-26T08:42:38;4.28;;;1.30;;
47866;SDS011;33628;50.806;11.586;2023-04-26T08:45:09;6.82;;;1.33;;
47866;SDS011;33628;50.806;11.586;2023-04-26T08:47:41;7.25;;;1.30;;
47866;SDS011;33628;50.806;11.586;2023-04-26T11:27:30;4.57;;;1.42;;
47866;SDS011;33628;50.806;11.586;2023-04-26T11:29:57;4.18;;;1.48;;
47866;SDS011;33628;50.806;11.586;2023-04-26T11:32:27;5.82;;;1.40;;
47866;SDS011;33628;50.806;11.586;2023-04-26T11:34:54;5.20;;;1.40;;
47866;SDS011;33628;50.806;11.586;2023-04-26T11:37:25;4.90;;;1.52;;
47866;SDS011;33628;50.806;11.586;2023-04-26T11:39:51;3.38;;;1.33;;
47866;SDS011;33628;50.806;11.586;2023-04-26T11:42:23;8.18;;;1.13;;
47866;SDS011;33628;50.806;11.586;2023-04-26T11:44:53;7.40;;;1.80;;
47866;SDS011;33628;50.806;11.586;2023-04-26T11:47:24;6.70;;;1.23;;
47866;SDS011;33628;50.806;11.586;2023-04-26T11:49:55;7.45;;;1.30;;
47866;SDS011;33628;50.806;11.586;2023-04-26T11:52:22;10.15;;;1.60;;
47866;SDS011;33628;50.806;11.586;2023-04-26T11:54:49;4.38;;;1.27;;
47866;SDS011;33628;50.806;11.586;2023-04-26T11:57:29;3.60;;;1.02;;
47866;SDS011;33628;50.806;11.586;2023-04-26T12:00:12;3.75;;;1.33;;
47866;SDS011;33628;50.806;11.586;2023-04-26T12:02:44;3.58;;;1.05;;
47866;SDS011;33628;50.806;11.586;2023-04-26T12:05:19;2.75;;;1.20;;
47866;SDS011;33628;50.806;11.586;2023-04-26T12:07:50;6.78;;;1.30;;
47866;SDS011;33628;50.806;11.586;2023-04-26T12:10:18;4.38;;;1.38;;
47866;SDS011;33628;50.806;11.586;2023-04-26T12:12:49;6.22;;;1.35;;
47866;SDS011;33628;50.806;11.586;2023-04-26T12:15:17;5.20;;;1.20;;
47866;SDS011;33628;50.806;11.586;2023-04-26T12:17:50;8.45;;;1.58;;
47866;SDS011;33628;50.806;11.586;2023-04-26T12:20:18;4.47;;;1.33;;
47866;SDS011;33628;50.806;11.586;2023-04-26T12:23:01;3.20;;;1.38;;
47866;SDS011;33628;50.806;11.586;2023-04-26T12:25:29;5.55;;;1.52;;
47866;SDS011;33628;50.806;11.586;2023-04-26T12:27:58;4.95;;;1.50;;
47866;SDS011;33628;50.806;11.586;2023-04-26T12:30:27;4.50;;;1.40;;
47866;SDS011;33628;50.806;11.586;2023-04-26T12:33:03;5.15;;;1.30;;
47866;SDS011;33628;50.806;11.586;2023-04-26T12:35:31;6.47;;;1.50;;
47866;SDS011;33628;50.806;11.586;2023-04-26T12:37:58;5.40;;;1.42;;
47866;SDS011;33628;50.806;11.586;2023-04-26T12:40:26;4.63;;;1.00;;
47866;SDS011;33628;50.806;11.586;2023-04-26T12:42:53;5.72;;;1.52;;
47866;SDS011;33628;50.806;11.586;2023-04-26T12:45:21;9.82;;;1.90;;
47866;SDS011;33628;50.806;11.586;2023-04-26T12:47:50;8.52;;;1.20;;
47866;SDS011;33628;50.806;11.586;2023-04-26T12:50:17;5.60;;;1.35;;
47866;SDS011;33628;50.806;11.586;2023-04-26T12:52:44;4.32;;;1.42;;
47866;SDS011;33628;50.806;11.586;2023-04-26T12:55:11;3.25;;;1.30;;
47866;SDS011;33628;50.806;11.586;2023-04-26T12:57:39;5.43;;;1.00;;
47866;SDS011;33628;50.806;11.586;2023-04-26T13:00:09;3.50;;;1.40;;
47866;SDS011;33628;50.806;11.586;2023-04-26T13:02:38;5.95;;;1.33;;
47866;SDS011;33628;50.806;11.586;2023-04-26T13:05:06;4.70;;;1.30;;
47866;SDS011;33628;50.806;11.586;2023-04-26T13:07:35;7.10;;;2.08;;
47866;SDS011;33628;50.806;11.586;2023-04-26T13:10:04;7.20;;;1.60;;
47866;SDS011;33628;50.806;11.586;2023-04-26T13:12:33;9.43;;;1.27;;
47866;SDS011;33628;50.806;11.586;2023-04-26T13:15:00;6.20;;;1.50;;
47866;SDS011;33628;50.806;11.586;2023-04-26T13:17:29;6.22;;;1.60;;
47866;SDS011;33628;50.806;11.586;2023-04-26T13:19:56;4.22;;;1.25;;
47866;SDS011;33628;50.806;11.586;2023-04-26T13:22:24;5.18;;;1.33;;
47866;SDS011;33628;50.806;11.586;2023-04-26T13:24:52;4.22;;;1.10;;
47866;SDS011;33628;50.806;11.586;2023-04-26T13:27:19;5.72;;;1.83;;
47866;SDS011;33628;50.806;11.586;2023-04-26T13:29:46;6.70;;;1.80;;
47866;SDS011;33628;50.806;11.586;2023-04-26T13:32:13;5.70;;;1.42;;
47866;SDS011;33628;50.806;11.586;2023-04-26T13:34:40;6.07;;;1.63;;
47866;SDS011;33628;50.806;11.586;2023-04-26T13:37:07;5.90;;;1.50;;
47866;SDS011;33628;50.806;11.586;2023-04-26T13:39:36;5.63;;;1.52;;
47866;SDS011;33628;50.806;11.586;2023-04-26T13:42:08;9.15;;;1.40;;
47866;SDS011;33628;50.806;11.586;2023-04-26T13:44:35;4.55;;;1.40;;
47866;SDS011;33628;50.806;11.586;2023-04-26T13:47:04;5.82;;;1.38;;
47866;SDS011;33628;50.806;11.586;2023-04-26T13:49:31;3.45;;;1.27;;
47866;SDS011;33628;50.806;11.586;2023-04-26T13:51:58;3.70;;;1.20;;
47866;SDS011;33628;50.806;11.586;2023-04-26T13:54:25;5.13;;;1.77;;
47866;SDS011;33628;50.806;11.586;2023-04-26T13:56:54;5.50;;;1.35;;
47866;SDS011;33628;50.806;11.586;2023-04-26T13:59:22;5.57;;;1.65;;
47866;SDS011;33628;50.806;11.586;2023-04-26T14:01:49;7.85;;;1.60;;
47866;SDS011;33628;50.806;11.586;2023-04-26T14:04:17;7.70;;;1.65;;
47866;SDS011;33628;50.806;11.586;2023-04-26T14:06:44;7.60;;;1.70;;
47866;SDS011;33628;50.806;11.586;2023-04-26T14:09:11;5.82;;;1.52;;
47866;SDS011;33628;50.806;11.586;2023-04-26T14:11:39;3.47;;;1.30;;
47866;SDS011;33628;50.806;11.586;2023-04-26T14:14:08;4.03;;;1.48;;
47866;SDS011;33628;50.806;11.586;2023-04-26T14:16:40;4.38;;;1.42;;
47866;SDS011;33628;50.806;11.586;2023-04-26T14:19:08;4.10;;;1.52;;
47866;SDS011;33628;50.806;11.586;2023-04-26T14:21:38;8.32;;;1.88;;
47866;SDS011;33628;50.806;11.586;2023-04-26T14:24:05;7.22;;;1.70;;
47866;SDS011;33628;50.806;11.586;2023-04-26T14:26:32;6.40;;;1.38;;
47866;SDS011;33628;50.806;11.586;2023-04-26T14:29:01;3.85;;;1.50;;
47866;SDS011;33628;50.806;11.586;2023-04-26T14:31:31;9.20;;;1.98;;
47866;SDS011;33628;50.806;11.586;2023-04-26T14:33:59;5.80;;;2.55;;
47866;SDS011;33628;50.806;11.586;2023-04-26T14:36:26;8.05;;;1.83;;
47866;SDS011;33628;50.806;11.586;2023-04-26T14:38:53;4.85;;;2.03;;
47866;SDS011;33628;50.806;11.586;2023-04-26T14:41:20;5.68;;;1.58;;
47866;SDS011;33628;50.806;11.586;2023-04-26T14:43:48;5.38;;;1.70;;
47866;SDS011;33628;50.806;11.586;2023-04-26T14:46:15;8.00;;;1.63;;
47866;SDS011;33628;50.806;11.586;2023-04-26T14:48:44;4.55;;;1.58;;
47866;SDS011;33628;50.806;11.586;2023-04-26T14:51:16;4.07;;;1.65;;
47866;SDS011;33628;50.806;11.586;2023-04-26T14:53:45;6.30;;;1.48;;
47866;SDS011;33628;50.806;11.586;2023-04-26T14:56:14;8.13;;;1.88;;
47866;SDS011;33628;50.806;11.586;2023-04-26T14:58:41;6.88;;;1.42;;
47866;SDS011;33628;50.806;11.586;2023-04-26T15:01:07;7.22;;;1.70;;
47866;SDS011;33628;50.806;11.586;2023-04-26T15:03:36;4.55;;;1.40;;
47866;SDS011;33628;50.806;11.586;2023-04-26T15:06:04;6.15;;;2.05;;
47866;SDS011;33628;50.806;11.586;2023-04-26T15:08:35;7.10;;;1.75;;
47866;SDS011;33628;50.806;11.586;2023-04-26T15:11:02;6.13;;;1.50;;
47866;SDS011;33628;50.806;11.586;2023-04-26T15:13:29;5.40;;;2.08;;
47866;SDS011;33628;50.806;11.586;2023-04-26T15:15:56;3.92;;;1.90;;
47866;SDS011;33628;50.806;11.586;2023-04-26T15:18:23;3.75;;;2.13;;
47866;SDS011;33628;50.806;11.586;2023-04-26T15:20:50;5.93;;;1.80;;
47866;SDS011;33628;50.806;11.586;2023-04-26T15:23:18;6.70;;;1.80;;
47866;SDS011;33628;50.806;11.586;2023-04-26T15:25:45;6.97;;;2.03;;
47866;SDS011;33628;50.806;11.586;2023-04-26T15:28:12;4.40;;;1.75;;
47866;SDS011;33628;50.806;11.586;2023-04-26T15:30:39;3.05;;;1.60;;
47866;SDS011;33628;50.806;11.586;2023-04-26T15:33:06;6.28;;;1.88;;
47866;SDS011;33628;50.806;11.586;2023-04-26T15:35:34;5.65;;;1.50;;
47866;SDS011;33628;50.806;11.586;2023-04-26T15:38:01;6.85;;;1.70;;
47866;SDS011;33628;50.806;11.586;2023-04-26T15:40:29;4.63;;;2.00;;
47866;SDS011;33628;50.806;11.586;2023-04-26T15:42:57;8.00;;;1.75;;
47866;SDS011;33628;50.806;11.586;2023-04-26T15:45:33;8.55;;;2.00;;
47866;SDS011;33628;50.806;11.586;2023-04-26T15:48:05;4.18;;;1.55;;
47866;SDS011;33628;50.806;11.586;2023-04-26T15:50:32;3.70;;;1.52;;
47866;SDS011;33628;50.806;11.586;2023-04-26T15:52:59;9.35;;;2.40;;
47866;SDS011;33628;50.806;11.586;2023-04-26T15:55:26;7.75;;;1.50;;
47866;SDS011;33628;50.806;11.586;2023-04-26T15:57:54;4.53;;;1.75;;
47866;SDS011;33628;50.806;11.586;2023-04-26T16:00:21;5.75;;;1.88;;
47866;SDS011;33628;50.806;11.586;2023-04-26T16:02:48;8.18;;;1.83;;
47866;SDS011;33628;50.806;11.586;2023-04-26T16:05:15;7.25;;;1.88;;
47866;SDS011;33628;50.806;11.586;2023-04-26T16:07:42;7.93;;;1.92;;
47866;SDS011;33628;50.806;11.586;2023-04-26T16:10:10;4.30;;;1.95;;
47866;SDS011;33628;50.806;11.586;2023-04-26T16:12:38;3.03;;;1.75;;
47866;SDS011;33628;50.806;11.586;2023-04-26T16:15:08;7.68;;;2.08;;
47866;SDS011;33628;50.806;11.586;2023-04-26T16:17:37;4.95;;;1.70;;
47866;SDS011;33628;50.806;11.586;2023-04-26T16:20:04;7.03;;;2.30;;
47866;SDS011;33628;50.806;11.586;2023-04-26T16:22:34;5.32;;;1.70;;
47866;SDS011;33628;50.806;11.586;2023-04-26T16:25:01;4.07;;;1.80;;
47866;SDS011;33628;50.806;11.586;2023-04-26T16:27:31;6.38;;;2.83;;
47866;SDS011;33628;50.806;11.586;2023-04-26T16:29:58;6.72;;;2.22;;
47866;SDS011;33628;50.806;11.586;2023-04-26T16:32:28;6.28;;;1.50;;
47866;SDS011;33628;50.806;11.586;2023-04-26T16:34:55;7.30;;;2.08;;
47866;SDS011;33628;50.806;11.586;2023-04-26T16:37:22;6.78;;;1.85;;
47866;SDS011;33628;50.806;11.586;2023-04-26T16:39:52;7.93;;;2.22;;
47866;SDS011;33628;50.806;11.586;2023-04-26T16:42:20;6.82;;;1.98;;
47866;SDS011;33628;50.806;11.586;2023-04-26T16:44:48;5.78;;;1.70;;
47866;SDS011;33628;50.806;11.586;2023-04-26T16:47:14;5.47;;;2.28;;
47866;SDS011;33628;50.806;11.586;2023-04-26T16:49:43;7.72;;;2.13;;
47866;SDS011;33628;50.806;11.586;2023-04-26T16:52:10;8.02;;;3.65;;
47866;SDS011;33628;50.806;11.586;2023-04-26T16:54:36;6.50;;;2.42;;
47866;SDS011;33628;50.806;11.586;2023-04-26T16:57:04;10.52;;;3.10;;
47866;SDS011;33628;50.806;11.586;2023-04-26T16:59:30;8.23;;;2.60;;
47866;SDS011;33628;50.806;11.586;2023-04-26T17:01:57;6.15;;;2.38;;
47866;SDS011;33628;50.806;11.586;2023-04-26T17:04:25;5.25;;;1.88;;
47866;SDS011;33628;50.806;11.586;2023-04-26T17:07:25;5.07;;;1.98;;
47866;SDS011;33628;50.806;11.586;2023-04-26T17:10:11;6.20;;;2.35;;
47866;SDS011;33628;50.806;11.586;2023-04-26T17:12:38;6.03;;;2.35;;
47866;SDS011;33628;50.806;11.586;2023-04-26T17:15:06;8.65;;;2.22;;
47866;SDS011;33628;50.806;11.586;2023-04-26T17:17:41;5.30;;;1.73;;